sensor_id;sensor_type;location;lat;lon;timestamp;temperature;humidity
12551;DHT22;6341;51.434;6.792;2022-07-10T00:02:10;21.40;1.00
12551;DHT22;6341;51.434;6.792;2022-07-10T00:07:34;21.40;1.00
12551;DHT22;6341;51.434;6.792;2022-07-10T00:12:59;22.30;1.00
12551;DHT22;6341;51.434;6.792;2022-07-10T00:18:22;21.20;1.00
12551;DHT22;6341;51.434;6.792;2022-07-10T00:23:46;21.20;1.00
12551;DHT22;6341;51.434;6.792;2022-07-10T00:29:11;21.10;1.00
12551;DHT22;6341;51.434;6.792;2022-07-10T00:34:34;21.30;1.00
12551;DHT22;6341;51.434;6.792;2022-07-10T00:39:58;21.10;1.00
12551;DHT22;6341;51.434;6.792;2022-07-10T00:45:23;21.10;1.00
12551;DHT22;6341;51.434;6.792;2022-07-10T00:50:47;21.10;1.00
12551;DHT22;6341;51.434;6.792;2022-07-10T00:56:11;21.10;1.00
12551;DHT22;6341;51.434;6.792;2022-07-10T01:01:36;21.30;1.00
12551;DHT22;6341;51.434;6.792;2022-07-10T01:07:00;21.10;1.00
12551;DHT22;6341;51.434;6.792;2022-07-10T01:12:23;21.10;1.00
12551;DHT22;6341;51.434;6.792;2022-07-10T01:17:48;21.00;1.00
12551;DHT22;6341;51.434;6.792;2022-07-10T01:23:17;21.00;1.00
12551;DHT22;6341;51.434;6.792;2022-07-10T01:28:40;21.00;1.00
12551;DHT22;6341;51.434;6.792;2022-07-10T01:34:07;21.00;1.00
12551;DHT22;6341;51.434;6.792;2022-07-10T01:39:32;21.00;1.00
12551;DHT22;6341;51.434;6.792;2022-07-10T01:44:56;20.90;1.00
12551;DHT22;6341;51.434;6.792;2022-07-10T01:50:26;20.90;1.00
12551;DHT22;6341;51.434;6.792;2022-07-10T01:55:51;20.90;1.00
12551;DHT22;6341;51.434;6.792;2022-07-10T02:01:14;20.90;1.00
12551;DHT22;6341;51.434;6.792;2022-07-10T02:06:38;20.80;1.00
12551;DHT22;6341;51.434;6.792;2022-07-10T02:12:03;20.80;1.00
12551;DHT22;6341;51.434;6.792;2022-07-10T02:17:27;20.70;1.00
12551;DHT22;6341;51.434;6.792;2022-07-10T02:22:50;20.70;1.00
12551;DHT22;6341;51.434;6.792;2022-07-10T02:28:15;20.70;1.00
12551;DHT22;6341;51.434;6.792;2022-07-10T02:33:38;20.60;1.00
12551;DHT22;6341;51.434;6.792;2022-07-10T02:39:02;20.60;1.00
12551;DHT22;6341;51.434;6.792;2022-07-10T02:44:27;20.60;1.00
12551;DHT22;6341;51.434;6.792;2022-07-10T02:49:51;20.60;1.00
12551;DHT22;6341;51.434;6.792;2022-07-10T02:55:14;21.50;1.00
12551;DHT22;6341;51.434;6.792;2022-07-10T03:00:39;20.50;1.00
12551;DHT22;6341;51.434;6.792;2022-07-10T03:06:03;20.40;1.00
12551;DHT22;6341;51.434;6.792;2022-07-10T03:11:27;20.40;1.00
12551;DHT22;6341;51.434;6.792;2022-07-10T03:16:51;20.40;1.00
12551;DHT22;6341;51.434;6.792;2022-07-10T03:22:15;20.40;1.00
12551;DHT22;6341;51.434;6.792;2022-07-10T03:27:38;20.30;1.00
12551;DHT22;6341;51.434;6.792;2022-07-10T03:33:03;20.30;1.00
12551;DHT22;6341;51.434;6.792;2022-07-10T03:38:27;20.30;1.00
12551;DHT22;6341;51.434;6.792;2022-07-10T03:43:50;20.20;1.00
12551;DHT22;6341;51.434;6.792;2022-07-10T03:49:15;20.20;1.00
12551;DHT22;6341;51.434;6.792;2022-07-10T03:54:38;20.20;1.00
12551;DHT22;6341;51.434;6.792;2022-07-10T04:00:02;20.10;1.00
12551;DHT22;6341;51.434;6.792;2022-07-10T04:05:27;22.50;1.00
12551;DHT22;6341;51.434;6.792;2022-07-10T04:10:51;20.10;1.00
12551;DHT22;6341;51.434;6.792;2022-07-10T04:16:14;20.10;1.00
12551;DHT22;6341;51.434;6.792;2022-07-10T04:21:39;20.10;1.00
12551;DHT22;6341;51.434;6.792;2022-07-10T04:27:03;21.50;1.00
12551;DHT22;6341;51.434;6.792;2022-07-10T04:32:29;20.00;1.00
12551;DHT22;6341;51.434;6.792;2022-07-10T04:37:53;20.00;1.00
12551;DHT22;6341;51.434;6.792;2022-07-10T04:43:16;20.00;1.00
12551;DHT22;6341;51.434;6.792;2022-07-10T04:48:40;20.10;1.00
12551;DHT22;6341;51.434;6.792;2022-07-10T04:54:05;20.10;1.00
12551;DHT22;6341;51.434;6.792;2022-07-10T04:59:29;20.10;1.00
12551;DHT22;6341;51.434;6.792;2022-07-10T05:04:52;21.50;1.00
12551;DHT22;6341;51.434;6.792;2022-07-10T05:10:17;20.40;1.00
12551;DHT22;6341;51.434;6.792;2022-07-10T05:15:40;20.50;1.00
12551;DHT22;6341;51.434;6.792;2022-07-10T05:21:04;20.60;1.00
12551;DHT22;6341;51.434;6.792;2022-07-10T05:26:29;20.70;1.00
12551;DHT22;6341;51.434;6.792;2022-07-10T05:31:53;20.80;1.00
12551;DHT22;6341;51.434;6.792;2022-07-10T05:37:16;20.80;1.00
12551;DHT22;6341;51.434;6.792;2022-07-10T05:42:41;20.90;1.00
12551;DHT22;6341;51.434;6.792;2022-07-10T05:48:06;21.00;1.00
12551;DHT22;6341;51.434;6.792;2022-07-10T05:53:29;21.00;1.00
12551;DHT22;6341;51.434;6.792;2022-07-10T05:58:54;20.90;1.00
12551;DHT22;6341;51.434;6.792;2022-07-10T06:04:18;20.90;1.00
12551;DHT22;6341;51.434;6.792;2022-07-10T06:09:41;20.80;1.00
12551;DHT22;6341;51.434;6.792;2022-07-10T06:15:07;20.90;1.00
12551;DHT22;6341;51.434;6.792;2022-07-10T06:20:39;20.90;1.00
12551;DHT22;6341;51.434;6.792;2022-07-10T06:26:03;20.90;1.00
12551;DHT22;6341;51.434;6.792;2022-07-10T06:31:28;21.00;1.00
12551;DHT22;6341;51.434;6.792;2022-07-10T06:36:52;21.00;1.00
12551;DHT22;6341;51.434;6.792;2022-07-10T06:42:15;21.00;1.00
12551;DHT22;6341;51.434;6.792;2022-07-10T06:47:41;20.90;1.00
12551;DHT22;6341;51.434;6.792;2022-07-10T06:53:20;21.00;1.00
12551;DHT22;6341;51.434;6.792;2022-07-10T06:58:46;20.90;1.00
12551;DHT22;6341;51.434;6.792;2022-07-10T07:04:17;21.00;1.00
12551;DHT22;6341;51.434;6.792;2022-07-10T07:09:41;21.00;1.00
12551;DHT22;6341;51.434;6.792;2022-07-10T07:15:07;21.00;1.00
12551;DHT22;6341;51.434;6.792;2022-07-10T07:20:32;21.00;1.00
12551;DHT22;6341;51.434;6.792;2022-07-10T07:26:13;21.20;1.00
12551;DHT22;6341;51.434;6.792;2022-07-10T07:31:36;20.90;1.00
12551;DHT22;6341;51.434;6.792;2022-07-10T07:37:02;20.90;1.00
12551;DHT22;6341;51.434;6.792;2022-07-10T07:42:26;20.90;1.00
12551;DHT22;6341;51.434;6.792;2022-07-10T07:47:50;21.00;1.00
12551;DHT22;6341;51.434;6.792;2022-07-10T07:53:17;20.90;1.00
12551;DHT22;6341;51.434;6.792;2022-07-10T07:58:40;20.90;1.00
12551;DHT22;6341;51.434;6.792;2022-07-10T08:04:05;20.80;1.00
12551;DHT22;6341;51.434;6.792;2022-07-10T08:09:32;20.80;1.00
12551;DHT22;6341;51.434;6.792;2022-07-10T08:14:55;20.80;1.00
12551;DHT22;6341;51.434;6.792;2022-07-10T08:20:21;22.10;1.00
12551;DHT22;6341;51.434;6.792;2022-07-10T08:25:45;20.80;1.00
12551;DHT22;6341;51.434;6.792;2022-07-10T08:31:09;21.60;1.00
12551;DHT22;6341;51.434;6.792;2022-07-10T08:36:37;21.00;1.00
12551;DHT22;6341;51.434;6.792;2022-07-10T08:42:06;22.10;1.00
12551;DHT22;6341;51.434;6.792;2022-07-10T08:47:30;21.50;1.00
12551;DHT22;6341;51.434;6.792;2022-07-10T08:53:07;21.60;1.00
12551;DHT22;6341;51.434;6.792;2022-07-10T08:58:33;21.60;1.00
12551;DHT22;6341;51.434;6.792;2022-07-10T09:03:58;21.60;1.00
12551;DHT22;6341;51.434;6.792;2022-07-10T09:09:21;21.70;1.00
12551;DHT22;6341;51.434;6.792;2022-07-10T09:14:47;21.70;1.00
12551;DHT22;6341;51.434;6.792;2022-07-10T09:20:24;21.50;3.50
12551;DHT22;6341;51.434;6.792;2022-07-10T09:25:49;21.60;49.00
12551;DHT22;6341;51.434;6.792;2022-07-10T09:31:13;21.70;99.90
12551;DHT22;6341;51.434;6.792;2022-07-10T09:36:37;22.70;99.90
12551;DHT22;6341;51.434;6.792;2022-07-10T09:42:01;21.60;99.90
12551;DHT22;6341;51.434;6.792;2022-07-10T09:47:25;21.60;99.90
12551;DHT22;6341;51.434;6.792;2022-07-10T09:52:50;21.80;99.90
12551;DHT22;6341;51.434;6.792;2022-07-10T09:58:16;22.00;99.90
12551;DHT22;6341;51.434;6.792;2022-07-10T10:03:43;22.00;99.90
12551;DHT22;6341;51.434;6.792;2022-07-10T10:09:12;22.20;99.90
12551;DHT22;6341;51.434;6.792;2022-07-10T10:14:38;22.30;99.90
12551;DHT22;6341;51.434;6.792;2022-07-10T10:20:06;22.20;99.90
12551;DHT22;6341;51.434;6.792;2022-07-10T10:25:48;22.00;99.90
12551;DHT22;6341;51.434;6.792;2022-07-10T10:31:12;21.90;99.90
12551;DHT22;6341;51.434;6.792;2022-07-10T10:36:47;22.00;99.90
12551;DHT22;6341;51.434;6.792;2022-07-10T10:42:34;22.10;99.90
12551;DHT22;6341;51.434;6.792;2022-07-10T10:47:59;22.20;99.90
12551;DHT22;6341;51.434;6.792;2022-07-10T10:53:45;22.40;1.00
12551;DHT22;6341;51.434;6.792;2022-07-10T10:59:46;22.80;1.00
12551;DHT22;6341;51.434;6.792;2022-07-10T11:05:41;22.80;1.00
12551;DHT22;6341;51.434;6.792;2022-07-10T11:11:38;22.80;1.00
12551;DHT22;6341;51.434;6.792;2022-07-10T11:17:02;23.10;1.00
12551;DHT22;6341;51.434;6.792;2022-07-10T11:22:52;22.80;1.00
12551;DHT22;6341;51.434;6.792;2022-07-10T11:28:25;23.00;1.00
12551;DHT22;6341;51.434;6.792;2022-07-10T11:33:52;23.40;99.90
12551;DHT22;6341;51.434;6.792;2022-07-10T11:39:16;23.60;99.90
12551;DHT22;6341;51.434;6.792;2022-07-10T11:44:41;24.20;1.00
12551;DHT22;6341;51.434;6.792;2022-07-10T11:50:06;23.90;1.00
12551;DHT22;6341;51.434;6.792;2022-07-10T11:55:30;23.90;1.00
12551;DHT22;6341;51.434;6.792;2022-07-10T12:01:03;24.50;1.00
12551;DHT22;6341;51.434;6.792;2022-07-10T12:06:29;23.20;99.90
12551;DHT22;6341;51.434;6.792;2022-07-10T12:12:00;22.90;99.90
12551;DHT22;6341;51.434;6.792;2022-07-10T12:17:25;22.70;99.90
12551;DHT22;6341;51.434;6.792;2022-07-10T12:22:49;22.50;99.90
12551;DHT22;6341;51.434;6.792;2022-07-10T12:28:15;22.30;99.90
12551;DHT22;6341;51.434;6.792;2022-07-10T12:33:40;22.20;99.90
12551;DHT22;6341;51.434;6.792;2022-07-10T12:39:03;22.30;99.90
12551;DHT22;6341;51.434;6.792;2022-07-10T12:44:32;23.20;1.00
12551;DHT22;6341;51.434;6.792;2022-07-10T12:50:02;25.50;1.00
12551;DHT22;6341;51.434;6.792;2022-07-10T12:55:35;26.50;99.90
12551;DHT22;6341;51.434;6.792;2022-07-10T13:00:59;25.90;99.90
12551;DHT22;6341;51.434;6.792;2022-07-10T13:06:28;24.90;99.90
12551;DHT22;6341;51.434;6.792;2022-07-10T13:11:52;25.00;99.90
12551;DHT22;6341;51.434;6.792;2022-07-10T13:17:16;27.10;99.90
12551;DHT22;6341;51.434;6.792;2022-07-10T13:22:41;28.40;22.40
12551;DHT22;6341;51.434;6.792;2022-07-10T13:28:05;28.00;1.00
12551;DHT22;6341;51.434;6.792;2022-07-10T13:33:29;27.00;1.00
12551;DHT22;6341;51.434;6.792;2022-07-10T13:38:54;27.00;1.00
12551;DHT22;6341;51.434;6.792;2022-07-10T13:44:18;27.00;1.00
12551;DHT22;6341;51.434;6.792;2022-07-10T13:49:42;26.90;1.00
12551;DHT22;6341;51.434;6.792;2022-07-10T13:55:08;26.60;1.00
12551;DHT22;6341;51.434;6.792;2022-07-10T14:00:31;26.00;1.00
12551;DHT22;6341;51.434;6.792;2022-07-10T14:05:55;25.50;1.00
12551;DHT22;6341;51.434;6.792;2022-07-10T14:11:20;25.10;26.80
12551;DHT22;6341;51.434;6.792;2022-07-10T14:16:44;24.90;29.80
12551;DHT22;6341;51.434;6.792;2022-07-10T14:22:07;24.60;48.70
12551;DHT22;6341;51.434;6.792;2022-07-10T14:27:32;24.40;78.30
12551;DHT22;6341;51.434;6.792;2022-07-10T14:32:55;24.30;80.80
12551;DHT22;6341;51.434;6.792;2022-07-10T14:38:19;24.20;85.00
12551;DHT22;6341;51.434;6.792;2022-07-10T14:43:43;24.10;84.60
12551;DHT22;6341;51.434;6.792;2022-07-10T14:49:07;25.00;92.80
12551;DHT22;6341;51.434;6.792;2022-07-10T14:54:30;24.00;96.40
12551;DHT22;6341;51.434;6.792;2022-07-10T14:59:54;24.20;96.30
12551;DHT22;6341;51.434;6.792;2022-07-10T15:05:18;24.50;64.10
12551;DHT22;6341;51.434;6.792;2022-07-10T15:10:41;24.90;39.90
12551;DHT22;6341;51.434;6.792;2022-07-10T15:16:09;25.70;10.90
12551;DHT22;6341;51.434;6.792;2022-07-10T15:21:33;25.00;17.80
12551;DHT22;6341;51.434;6.792;2022-07-10T15:26:57;24.90;18.70
12551;DHT22;6341;51.434;6.792;2022-07-10T15:32:21;24.70;28.00
12551;DHT22;6341;51.434;6.792;2022-07-10T15:37:45;24.90;10.00
12551;DHT22;6341;51.434;6.792;2022-07-10T15:43:08;24.60;19.70
12551;DHT22;6341;51.434;6.792;2022-07-10T15:48:33;24.70;16.80
12551;DHT22;6341;51.434;6.792;2022-07-10T15:53:59;24.90;7.10
12551;DHT22;6341;51.434;6.792;2022-07-10T15:59:22;24.90;1.00
12551;DHT22;6341;51.434;6.792;2022-07-10T16:04:47;24.80;1.00
12551;DHT22;6341;51.434;6.792;2022-07-10T16:10:10;24.80;1.00
12551;DHT22;6341;51.434;6.792;2022-07-10T16:15:34;24.60;1.00
12551;DHT22;6341;51.434;6.792;2022-07-10T16:20:59;24.50;1.00
12551;DHT22;6341;51.434;6.792;2022-07-10T16:26:22;24.50;1.00
12551;DHT22;6341;51.434;6.792;2022-07-10T16:31:46;24.20;1.00
12551;DHT22;6341;51.434;6.792;2022-07-10T16:37:11;24.00;1.00
12551;DHT22;6341;51.434;6.792;2022-07-10T16:42:34;24.00;1.00
12551;DHT22;6341;51.434;6.792;2022-07-10T16:47:58;24.70;1.00
12551;DHT22;6341;51.434;6.792;2022-07-10T16:53:23;23.70;1.00
12551;DHT22;6341;51.434;6.792;2022-07-10T16:58:48;23.60;1.00
12551;DHT22;6341;51.434;6.792;2022-07-10T17:04:12;23.70;1.00
12551;DHT22;6341;51.434;6.792;2022-07-10T17:09:36;24.10;1.00
12551;DHT22;6341;51.434;6.792;2022-07-10T17:15:00;23.50;1.00
12551;DHT22;6341;51.434;6.792;2022-07-10T17:20:24;23.40;1.00
12551;DHT22;6341;51.434;6.792;2022-07-10T17:25:49;23.30;4.20
12551;DHT22;6341;51.434;6.792;2022-07-10T17:31:12;23.20;3.50
12551;DHT22;6341;51.434;6.792;2022-07-10T17:36:36;23.20;2.80
12551;DHT22;6341;51.434;6.792;2022-07-10T17:42:02;23.20;4.20
12551;DHT22;6341;51.434;6.792;2022-07-10T17:47:26;23.20;3.50
12551;DHT22;6341;51.434;6.792;2022-07-10T17:52:49;24.50;6.50
12551;DHT22;6341;51.434;6.792;2022-07-10T17:58:14;23.20;4.30
12551;DHT22;6341;51.434;6.792;2022-07-10T18:03:37;23.70;1.50
12551;DHT22;6341;51.434;6.792;2022-07-10T18:09:02;23.90;1.00
12551;DHT22;6341;51.434;6.792;2022-07-10T18:14:37;23.10;1.00
12551;DHT22;6341;51.434;6.792;2022-07-10T18:20:03;23.10;1.00
12551;DHT22;6341;51.434;6.792;2022-07-10T18:26:00;20.80;1.00
12551;DHT22;6341;51.434;6.792;2022-07-10T18:31:48;26.50;5.10
12551;DHT22;6341;51.434;6.792;2022-07-10T18:37:30;23.40;22.10
12551;DHT22;6341;51.434;6.792;2022-07-10T18:43:10;21.80;5.20
12551;DHT22;6341;51.434;6.792;2022-07-10T18:48:46;24.50;1.20
12551;DHT22;6341;51.434;6.792;2022-07-10T18:54:28;22.90;6.20
12551;DHT22;6341;51.434;6.792;2022-07-10T19:00:34;22.90;5.70
12551;DHT22;6341;51.434;6.792;2022-07-10T19:06:19;20.70;3.70
12551;DHT22;6341;51.434;6.792;2022-07-10T19:12:17;22.70;8.90
12551;DHT22;6341;51.434;6.792;2022-07-10T19:23:47;22.60;14.80
12551;DHT22;6341;51.434;6.792;2022-07-10T19:29:36;21.00;13.90
12551;DHT22;6341;51.434;6.792;2022-07-10T19:35:30;22.50;31.00
12551;DHT22;6341;51.434;6.792;2022-07-10T19:41:07;23.30;25.00
12551;DHT22;6341;51.434;6.792;2022-07-10T19:46:49;22.50;22.90
12551;DHT22;6341;51.434;6.792;2022-07-10T19:52:38;23.50;34.60
12551;DHT22;6341;51.434;6.792;2022-07-10T19:58:13;22.40;40.30
12551;DHT22;6341;51.434;6.792;2022-07-10T20:03:46;22.40;46.00
12551;DHT22;6341;51.434;6.792;2022-07-10T20:09:25;25.80;61.00
12551;DHT22;6341;51.434;6.792;2022-07-10T20:15:09;23.30;51.10
12551;DHT22;6341;51.434;6.792;2022-07-10T20:20:33;22.30;52.30
12551;DHT22;6341;51.434;6.792;2022-07-10T20:25:58;22.30;58.30
12551;DHT22;6341;51.434;6.792;2022-07-10T20:31:23;22.20;67.60
12551;DHT22;6341;51.434;6.792;2022-07-10T20:36:46;22.20;72.00
12551;DHT22;6341;51.434;6.792;2022-07-10T20:42:27;22.20;79.10
12551;DHT22;6341;51.434;6.792;2022-07-10T20:47:52;23.60;88.10
12551;DHT22;6341;51.434;6.792;2022-07-10T20:53:16;22.10;93.50
12551;DHT22;6341;51.434;6.792;2022-07-10T20:58:39;22.10;99.90
12551;DHT22;6341;51.434;6.792;2022-07-10T21:04:04;22.00;99.90
12551;DHT22;6341;51.434;6.792;2022-07-10T21:09:27;22.00;99.90
12551;DHT22;6341;51.434;6.792;2022-07-10T21:14:50;22.00;99.90
12551;DHT22;6341;51.434;6.792;2022-07-10T21:20:15;22.00;99.90
12551;DHT22;6341;51.434;6.792;2022-07-10T21:25:39;22.00;99.90
12551;DHT22;6341;51.434;6.792;2022-07-10T21:31:02;21.90;99.90
12551;DHT22;6341;51.434;6.792;2022-07-10T21:36:27;22.10;99.90
12551;DHT22;6341;51.434;6.792;2022-07-10T21:41:51;21.90;99.90
12551;DHT22;6341;51.434;6.792;2022-07-10T21:47:15;21.90;99.90
12551;DHT22;6341;51.434;6.792;2022-07-10T21:52:40;23.20;99.90
12551;DHT22;6341;51.434;6.792;2022-07-10T21:58:03;21.90;99.90
12551;DHT22;6341;51.434;6.792;2022-07-10T22:03:26;21.80;99.90
12551;DHT22;6341;51.434;6.792;2022-07-10T22:08:51;21.80;99.90
12551;DHT22;6341;51.434;6.792;2022-07-10T22:14:15;23.10;99.90
12551;DHT22;6341;51.434;6.792;2022-07-10T22:19:38;21.80;99.90
12551;DHT22;6341;51.434;6.792;2022-07-10T22:25:04;22.90;99.90
12551;DHT22;6341;51.434;6.792;2022-07-10T22:30:28;21.80;99.90
12551;DHT22;6341;51.434;6.792;2022-07-10T22:36:09;21.70;99.90
12551;DHT22;6341;51.434;6.792;2022-07-10T22:41:34;21.70;99.90
12551;DHT22;6341;51.434;6.792;2022-07-10T22:46:57;21.70;99.90
12551;DHT22;6341;51.434;6.792;2022-07-10T22:52:21;21.80;99.90
12551;DHT22;6341;51.434;6.792;2022-07-10T22:57:46;21.70;99.90
12551;DHT22;6341;51.434;6.792;2022-07-10T23:03:10;21.70;99.90
12551;DHT22;6341;51.434;6.792;2022-07-10T23:08:34;21.70;99.90
12551;DHT22;6341;51.434;6.792;2022-07-10T23:14:00;21.60;1.00
12551;DHT22;6341;51.434;6.792;2022-07-10T23:19:23;21.70;1.00
12551;DHT22;6341;51.434;6.792;2022-07-10T23:24:47;21.60;1.00
12551;DHT22;6341;51.434;6.792;2022-07-10T23:30:20;21.60;1.00
12551;DHT22;6341;51.434;6.792;2022-07-10T23:35:43;21.50;1.00
12551;DHT22;6341;51.434;6.792;2022-07-10T23:41:07;21.40;1.00
12551;DHT22;6341;51.434;6.792;2022-07-10T23:46:32;21.50;1.00
12551;DHT22;6341;51.434;6.792;2022-07-10T23:51:55;21.50;1.00
12551;DHT22;6341;51.434;6.792;2022-07-10T23:57:20;21.50;1.00
